Station: Cowley Beach (Defence)  

  Atmospheric Gas Attenuation - ITU Rec 676-11   ----------------- dB/100km -----------------
Date Time Temp RH % AH g/m3 Dew Point Wind Direction Speed kph Gust kph Barometer mB Rainfall Since 9am 24GHz 47GHz 76GHz 122GHz 134GHz 241GHz
08/05 12:30 26.4 78 19.42 22.3 11 20 1013.1 0 41.7 40.2 77.7 205.6 227.0 788.6
08/05 12:20 26.4 76 18.92 21.8 9 15 1013.1 0 40.6 39.2 75.4 199.5 219.4 762.1
08/05 12:10 26.5 78 19.53 22.3 15 22 1013.1 0 41.9 40.3 78.1 206.7 228.4 793.4
08/05 12:00 25.8 79 19.02 21.9 13 20 1013.1 0 40.9 39.7 76.5 202.3 222.7 773.5
08/05 11:50 25.6 78 18.57 21.6 11 19 1013.1 0 40.0 38.9 74.6 197.2 216.4 751.7
08/05 11:40 25.5 80 18.94 21.8 11 17 1013.1 0 40.8 39.7 76.4 202.1 222.3 772.3
08/05 11:30 25.5 80 18.94 21.8 11 20 1013.1 0 40.8 39.7 76.4 202.1 222.3 772.3
08/05 11:20 25.4 82 19.3 22.1 11 13 1013.1 0 41.6 40.4 78.2 206.9 228.2 792.6
08/05 11:10 25.2 80 18.62 21.5 13 19 1013.1 0 40.1 39.2 75.2 198.9 218.3 758.3
08/05 11:00 25.6 81 19.28 22.1 9 22 1013.1 0 41.5 40.3 77.9 206.1 227.3 789.4
08/05 10:50 26 80 19.48 22.4 9 13 1013.1 0 41.9 40.5 78.4 207.5 229.1 796.0
08/05 10:40 25.8 82 19.74 22.5 11 19 1013.1 0 42.4 41.1 79.9 211.3 233.8 812.1
08/05 10:30 25.3 83 19.43 22.2 11 15 1013.1 0 41.8 40.7 78.9 208.8 230.5 800.7
08/05 10:20 25.2 83 19.32 22.1 11 19 1013.1 0 41.6 40.5 78.5 207.7 229.1 795.8
08/05 10:10 25.7 81 19.39 22.2 13 17 1013.1 0 41.7 40.4 78.3 207.2 228.6 794.3
08/05 10:00 26 81 19.72 22.5 9 17 1013.1 0 42.4 40.9 79.6 210.5 232.8 808.9
08/05 09:50 25.8 83 19.98 22.7 13 15 1013.1 0 43.0 41.5 81.0 214.4 237.5 825.1
08/05 09:40 25.6 83 19.76 22.5 11 15 1013.1 0 42.5 41.2 80.2 212.1 234.7 815.3
08/05 09:30 25 85 19.57 22.3 11 20 1013.1 0 42.2 41.1 79.9 211.4 233.6 811.5
08/05 09:20 25 85 19.57 22.3 7 11 1013.1 0 42.2 41.1 79.9 211.4 233.6 811.5
08/05 09:10 24.7 86 19.47 22.3 7 11 1013.1 0 42.0 41.1 79.7 211.0 233.0 809.3
08/05 09:00 24.6 87 19.58 22.3 11 22 1013.1 0 42.2 41.3 80.4 212.7 235.0 816.4
08/05 08:50 24.6 87 19.58 22.3 9 15 1013.1 0.6 42.2 41.3 80.4 212.7 235.0 816.4
08/05 08:40 24.5 87 19.47 22.2 15 19 1013.1 0.6 42.0 41.2 79.9 211.5 233.6 811.4
08/05 08:30 24.3 90 19.92 22.6 9 19 1013.1 0.4 43.0 42.2 82.4 217.9 241.4 838.4
08/05 08:20 24.5 87 19.47 22.3 9 15 1013.1 0.4 42.0 41.2 79.9 211.5 233.6 811.4
08/05 08:10 25 84 19.34 22.1 9 13 1013.1 0.2 41.7 40.7 78.8 208.5 230.0 799.0
08/05 08:00 25.2 85 19.79 22.5 6 13 1013.1 0.2 42.6 41.5 80.7 213.6 236.4 821.3
08/05 07:50 25.1 84 19.45 22.2 4 7 1013.1 0.2 41.9 40.8 79.2 209.6 231.4 803.9
08/05 07:40 24.8 86 19.57 22.3 6 7 1013.1 0.2 42.2 41.2 80.1 212.0 234.3 813.6
08/05 07:30 23.9 89 19.25 22 6 15 1013.1 0.2 41.6 41.1 79.5 210.4 232.0 805.8
08/05 07:20 23.7 88 18.82 21.6 6 7 1013.1 0.2 40.7 40.3 77.7 205.4 225.9 784.4
08/05 07:10 23.1 92 19.02 21.7 6 7 1013.1 0.2 41.2 41.0 79.3 209.6 230.9 801.7
08/05 07:00 22.1 94 18.35 21.1 2 6 1013.1 0.2 39.9 40.2 77.0 203.7 223.3 775.3
08/05 06:50 21.9 94 18.14 20.9 4 6 1013.1 0.2 39.4 39.9 76.2 201.6 220.6 765.8
08/05 06:40 21.8 94 18.03 20.8 4 6 1013.1 0.2 39.2 39.7 75.8 200.4 219.2 760.7
08/05 06:30 21.7 94 17.93 20.7 6 9 1013.1 0.2 39.0 39.6 75.4 199.4 217.9 756.3
08/05 06:20 21.7 94 17.93 20.7 4 6 1013.1 0.2 39.0 39.6 75.4 199.4 217.9 756.3
08/05 06:10 21.6 94 17.83 20.6 6 7 1013.1 0.2 38.8 39.4 75.0 198.4 216.6 751.8
08/05 06:00 21.6 94 17.83 20.6 6 11 1013.1 0.2 38.8 39.4 75.0 198.4 216.6 751.8
08/05 05:50 21.6 94 17.83 20.6 7 7 1013.1 0.2 38.8 39.4 75.0 198.4 216.6 751.8
08/05 05:40 21.6 94 17.83 20.6 7 9 1013.1 0.2 38.8 39.4 75.0 198.4 216.6 751.8
08/05 05:30 21.6 94 17.83 20.6 6 11 1013.1 0.2 38.8 39.4 75.0 198.4 216.6 751.8
08/05 05:20 21.5 94 17.72 20.5 6 9 1013.1 0.2 38.6 39.2 74.6 197.2 215.2 746.8
08/05 05:10 21.4 94 17.62 20.4 6 7 1013.1 0.2 38.4 39.1 74.2 196.2 213.9 742.3
08/05 05:00 21.4 94 17.62 20.4 6 11 1013.1 0.2 38.4 39.1 74.2 196.2 213.9 742.3
08/05 04:50 21.4 95 17.81 20.5 7 9 1013.1 0.2 38.8 39.5 75.1 198.6 216.9 752.7
08/05 04:40 21.2 95 17.6 20.3 7 11 1013.1 0.2 38.4 39.2 74.3 196.5 214.1 743.2
08/05 04:30 21.2 95 17.6 20.4 6 9 1013.1 0.2 38.4 39.2 74.3 196.5 214.1 743.2
08/05 04:20 21.3 94 17.52 20.3 7 9 1013.1 0.2 38.2 39.0 73.8 195.2 212.6 737.8
08/05 04:10 21.3 94 17.52 20.3 6 9 1013.1 0.2 38.2 39.0 73.8 195.2 212.6 737.8
08/05 04:00 21.4 94 17.62 20.4 7 11 1013.1 0.2 38.4 39.1 74.2 196.2 213.9 742.3
08/05 03:50 21.6 94 17.83 20.6 7 9 1013.1 0.2 38.8 39.4 75.0 198.4 216.6 751.8
08/05 03:40 21.5 94 17.72 20.5 6 7 1013.1 0.2 38.6 39.2 74.6 197.2 215.2 746.8
08/05 03:30 21.5 94 17.72 20.5 7 11 1013.1 0.2 38.6 39.2 74.6 197.2 215.2 746.8
08/05 03:20 21.4 94 17.62 20.4 7 9 1013.1 0.2 38.4 39.1 74.2 196.2 213.9 742.3
08/05 03:10 21.3 94 17.52 20.3 6 7 1013.1 0.2 38.2 39.0 73.8 195.2 212.6 737.8
08/05 03:00 21.3 94 17.52 20.3 6 9 1013.1 0.2 38.2 39.0 73.8 195.2 212.6 737.8
08/05 02:50 21.3 94 17.52 20.3 6 7 1013.1 0.2 38.2 39.0 73.8 195.2 212.6 737.8
08/05 02:40 21.4 93 17.43 20.2 6 6 1013.1 0.2 38.0 38.7 73.3 193.8 210.9 731.9
08/05 02:30 21.4 93 17.43 20.2 6 9 1013.1 0.2 38.0 38.7 73.3 193.8 210.9 731.9
08/05 02:20 21.4 93 17.43 20.2 6 6 1013.1 0.2 38.0 38.7 73.3 193.8 210.9 731.9
08/05 02:10 21.5 94 17.72 20.5 7 9 1013.1 0.2 38.6 39.2 74.6 197.2 215.2 746.8
08/05 02:00 21.4 94 17.62 20.4 7 11 1013.1 0.2 38.4 39.1 74.2 196.2 213.9 742.3
08/05 01:50 21.3 94 17.52 20.3 6 7 1013.1 0.2 38.2 39.0 73.8 195.2 212.6 737.8
08/05 01:40 21.2 94 17.42 20.2 6 7 1013.1 0.2 38.0 38.8 73.4 194.2 211.3 733.3
08/05 01:30 21.3 94 17.52 20.3 7 9 1013.1 0.2 38.2 39.0 73.8 195.2 212.6 737.8
08/05 01:20 21.3 94 17.52 20.3 6 9 1013.1 0.2 38.2 39.0 73.8 195.2 212.6 737.8
08/05 01:10 21.2 94 17.42 20.2 6 7 1013.1 0.2 38.0 38.8 73.4 194.2 211.3 733.3
08/05 01:00 21.2 93 17.23 20 6 7 1013.1 0.2 37.6 38.4 72.5 191.8 208.3 723.0
08/05 00:50 21.4 93 17.43 20.2 6 6 1013.1 0.2 38.0 38.7 73.3 193.8 210.9 731.9
08/05 00:40 21.4 93 17.43 20.2 6 7 1013.1 0.2 38.0 38.7 73.3 193.8 210.9 731.9
08/05 00:30 21.4 92 17.25 20 6 9 1013.1 0.2 37.6 38.4 72.4 191.5 208.1 722.2
08/05 00:20 21.5 92 17.35 20.1 7 11 1013.1 0.2 37.8 38.5 72.8 192.5 209.4 726.6
08/05 00:10 21.6 92 17.45 20.2 7 9 1013.1 0.2 38.0 38.7 73.2 193.5 210.6 731.1
08/05 00:00 21.6 92 17.45 20.2 6 9 1013.1 0.2 38.0 38.7 73.2 193.5 210.6 731.1
07/05 23:50 21.6 92 17.45 20.2 6 7 1013.1 0.2 38.0 38.7 73.2 193.5 210.6 731.1
07/05 23:40 21.6 92 17.45 20.2 6 7 1013.1 0.2 38.0 38.7 73.2 193.5 210.6 731.1
07/05 23:30 21.7 92 17.55 20.3 6 7 1013.1 0.2 38.2 38.8 73.6 194.5 211.9 735.5
07/05 23:20 21.8 92 17.65 20.4 6 7 1013.1 0.2 38.4 39.0 74.0 195.6 213.2 740.0
07/05 23:10 21.7 92 17.55 20.3 6 9 1013.1 0.2 38.2 38.8 73.6 194.5 211.9 735.5
07/05 23:00 21.7 93 17.74 20.5 6 7 1013.1 0.2 38.6 39.2 74.5 197.0 214.9 745.9
07/05 22:50 21.8 94 18.03 20.8 6 6 1013.1 0.2 39.2 39.7 75.8 200.4 219.2 760.7
07/05 22:40 21.9 93 17.94 20.7 6 7 1013.1 0.2 39.0 39.5 75.3 199.0 217.4 754.8
07/05 22:30 21.9 93 17.94 20.7 6 9 1013.1 0.2 39.0 39.5 75.3 199.0 217.4 754.8
07/05 22:20 21.9 94 18.14 20.9 7 11 1013.1 0.2 39.4 39.9 76.2 201.6 220.6 765.8
07/05 22:10 21.9 94 18.14 20.9 6 7 1013.1 0.2 39.4 39.9 76.2 201.6 220.6 765.8
07/05 22:00 22 94 18.24 21 6 7 1013.1 0.2 39.7 40.0 76.6 202.6 221.9 770.2
07/05 21:50 22.1 93 18.15 21 6 6 1013.1 0.2 39.4 39.8 76.1 201.2 220.2 764.3
07/05 21:40 22.1 93 18.15 21 6 6 1013.1 0.2 39.4 39.8 76.1 201.2 220.2 764.3
07/05 21:30 22.2 94 18.45 21.2 6 7 1013.1 0.2 40.1 40.3 77.4 204.8 224.6 779.7
07/05 21:20 22.2 95 18.65 21.3 6 6 1013.1 0.2 40.5 40.7 78.4 207.3 227.8 790.8
07/05 21:10 22.2 95 18.65 21.3 6 6 1013.1 0.2 40.5 40.7 78.4 207.3 227.8 790.8
07/05 21:00 22.3 95 18.76 21.5 6 6 1013.1 0.2 40.7 40.9 78.8 208.5 229.2 795.8
07/05 20:50 22.4 95 18.87 21.5 4 4 1013.1 0.2 41.0 41.1 79.3 209.7 230.7 800.9
07/05 20:40 22.5 93 18.57 21.4 4 4 1013.1 0.2 40.3 40.4 77.7 205.5 225.6 783.2
07/05 20:30 22.6 94 18.88 21.6 4 7 1013.1 0.2 41.0 41.0 79.1 209.2 230.2 799.3
07/05 20:20 22.8 93 18.9 21.6 4 4 1013.1 0.2 41.0 40.9 79.0 208.9 229.9 798.3
07/05 20:10 23 92 18.91 21.6 6 6 1013.1 0.2 41.0 40.8 78.8 208.5 229.5 796.7
07/05 20:00 23.3 91 19.03 21.7 4 7 1013.1 0.2 41.2 40.9 79.1 209.2 230.4 800.1

Last Refresh: 08-May-2026 12:08:50

Bureau of Meteorology